createdAt,value
2018-12-27T00:01:46.815Z,227.50
2018-12-27T00:04:15.165Z,89.13
2018-12-27T00:06:43.870Z,273.80
2018-12-27T00:09:12.208Z,11.63
2018-12-27T00:11:40.664Z,16.17
2018-12-27T00:14:09.215Z,15.27
2018-12-27T00:16:37.878Z,38.00
2018-12-27T00:19:06.282Z,20.97
2018-12-27T00:21:34.633Z,25.30
2018-12-27T00:24:03.215Z,40.37
2018-12-27T00:26:31.416Z,49.30
2018-12-27T00:29:00.278Z,60.13
2018-12-27T00:31:29.080Z,37.33
2018-12-27T00:33:57.807Z,56.57
2018-12-27T00:36:26.223Z,21.80
2018-12-27T00:38:55.009Z,40.63
2018-12-27T00:41:23.394Z,28.50
2018-12-27T00:43:51.847Z,37.63
2018-12-27T00:46:20.235Z,22.73
2018-12-27T00:48:49.011Z,28.10
2018-12-27T00:51:17.497Z,17.50
2018-12-27T00:53:46.016Z,19.80
2018-12-27T00:56:14.585Z,20.97
2018-12-27T00:58:43.320Z,24.63
2018-12-27T01:01:11.744Z,25.43
2018-12-27T01:03:40.226Z,33.43
2018-12-27T01:06:08.622Z,17.70
2018-12-27T01:08:37.075Z,13.93
2018-12-27T01:11:05.601Z,14.63
2018-12-27T01:13:34.301Z,15.27
2018-12-27T01:16:02.908Z,20.87
2018-12-27T01:18:31.281Z,19.23
2018-12-27T01:20:59.691Z,15.67
2018-12-27T01:23:28.067Z,14.70
2018-12-27T01:25:56.578Z,14.23
2018-12-27T01:28:25.203Z,16.37
2018-12-27T01:30:53.766Z,16.27
2018-12-27T01:33:22.217Z,16.10
2018-12-27T01:35:50.637Z,17.47
2018-12-27T01:38:19.302Z,15.30
2018-12-27T01:40:47.784Z,11.97
2018-12-27T01:43:16.665Z,15.23
2018-12-27T01:45:45.034Z,12.87
2018-12-27T01:48:13.591Z,18.77
2018-12-27T01:50:42.165Z,15.67
2018-12-27T01:53:10.991Z,17.43
2018-12-27T01:55:39.538Z,16.43
2018-12-27T01:58:08.221Z,15.33
2018-12-27T02:00:36.852Z,12.47
2018-12-27T02:03:05.235Z,14.93
2018-12-27T02:05:34.160Z,16.23
2018-12-27T02:08:02.687Z,15.30
2018-12-27T02:10:31.058Z,12.40
2018-12-27T02:12:59.467Z,16.43
2018-12-27T02:15:28.038Z,15.20
2018-12-27T02:17:56.552Z,13.67
2018-12-27T02:20:25.199Z,12.07
2018-12-27T02:22:53.571Z,13.60
2018-12-27T02:25:22.136Z,11.07
2018-12-27T02:27:50.907Z,12.10
2018-12-27T02:30:19.292Z,13.93
2018-12-27T02:32:48.018Z,14.27
2018-12-27T02:35:16.441Z,12.50
2018-12-27T02:37:44.809Z,13.03
2018-12-27T02:40:13.490Z,14.97
2018-12-27T02:42:41.886Z,12.47
2018-12-27T02:45:10.396Z,11.33
2018-12-27T02:47:39.294Z,13.07
2018-12-27T02:50:08.012Z,11.37
2018-12-27T02:52:36.502Z,13.53
2018-12-27T02:55:04.942Z,13.87
2018-12-27T02:57:33.356Z,15.63
2018-12-27T03:00:01.897Z,13.43
2018-12-27T03:02:30.335Z,11.03
2018-12-27T03:04:58.967Z,8.10
2018-12-27T03:07:27.414Z,11.83
2018-12-27T03:09:56.251Z,12.53
2018-12-27T03:12:24.657Z,12.27
2018-12-27T03:14:53.524Z,15.13
2018-12-27T03:17:21.983Z,9.63
2018-12-27T03:19:50.668Z,13.43
2018-12-27T03:22:19.057Z,10.37
2018-12-27T03:24:47.429Z,12.33
2018-12-27T03:27:16.007Z,10.00
2018-12-27T03:29:44.546Z,9.47
2018-12-27T03:32:13.172Z,15.20
2018-12-27T03:34:42.609Z,10.00
2018-12-27T03:37:11.496Z,7.67
2018-12-27T03:39:40.437Z,12.47
2018-12-27T03:42:09.207Z,8.20
2018-12-27T03:44:37.928Z,8.90
2018-12-27T03:47:06.739Z,7.70
2018-12-27T03:49:35.513Z,7.87
2018-12-27T03:52:04.447Z,12.27
2018-12-27T03:54:33.502Z,8.83
2018-12-27T03:57:02.835Z,8.13
2018-12-27T03:59:31.724Z,9.90
2018-12-27T04:02:00.442Z,9.50
2018-12-27T04:04:29.472Z,10.10
2018-12-27T04:06:58.912Z,9.30
2018-12-27T04:09:27.804Z,9.33
2018-12-27T04:11:57.114Z,11.37
2018-12-27T04:14:26.175Z,7.90
2018-12-27T04:16:55.013Z,8.43
2018-12-27T04:19:23.582Z,16.37
2018-12-27T04:21:52.131Z,13.60
2018-12-27T04:24:20.518Z,10.90
2018-12-27T04:26:49.327Z,16.97
2018-12-27T04:29:17.819Z,11.43
2018-12-27T04:31:47.210Z,15.63
2018-12-27T04:34:16.067Z,14.27
2018-12-27T04:36:44.712Z,11.97
2018-12-27T04:39:13.364Z,12.70
2018-12-27T04:41:42.089Z,20.33
2018-12-27T04:44:10.767Z,8.40
2018-12-27T04:46:39.415Z,11.63
2018-12-27T04:49:08.221Z,11.43
2018-12-27T04:51:36.506Z,8.73
2018-12-27T04:54:04.650Z,12.77
2018-12-27T04:56:32.951Z,9.70
2018-12-27T04:59:01.115Z,13.43
2018-12-27T05:01:29.445Z,15.67
2018-12-27T05:03:57.635Z,15.20
2018-12-27T05:06:26.158Z,13.27
2018-12-27T05:08:54.781Z,10.27
2018-12-27T05:11:24.976Z,13.63
2018-12-27T05:13:53.221Z,7.60
2018-12-27T05:16:21.435Z,6.57
2018-12-27T05:18:50.091Z,11.00
2018-12-27T05:21:18.369Z,11.20
2018-12-27T05:23:46.525Z,10.57
2018-12-27T05:26:14.872Z,11.20
2018-12-27T05:28:43.031Z,9.20
2018-12-27T05:31:11.253Z,11.07
2018-12-27T05:33:39.439Z,12.20
2018-12-27T05:36:08.160Z,7.90
2018-12-27T05:38:36.928Z,10.70
2018-12-27T05:41:05.190Z,17.93
2018-12-27T05:43:34.103Z,24.97
2018-12-27T05:46:02.247Z,18.20
2018-12-27T05:48:30.713Z,12.10
2018-12-27T05:50:59.035Z,12.67
2018-12-27T05:53:27.379Z,15.13
2018-12-27T05:55:55.764Z,10.13
2018-12-27T05:58:23.922Z,11.70
2018-12-27T06:00:52.243Z,13.30
2018-12-27T06:03:20.651Z,12.87
2018-12-27T06:05:48.806Z,11.70
2018-12-27T06:08:17.340Z,8.13
2018-12-27T06:10:45.592Z,11.73
2018-12-27T06:13:13.873Z,12.70
2018-12-27T06:15:42.018Z,8.57
2018-12-27T06:20:56.231Z,6.67
2018-12-27T06:23:24.593Z,5.47
2018-12-27T06:25:53.032Z,5.13
2018-12-27T06:28:21.492Z,6.03
2018-12-27T06:30:49.860Z,4.93
2018-12-27T06:33:18.502Z,5.60
2018-12-27T06:35:46.893Z,6.70
2018-12-27T06:38:15.516Z,7.67
2018-12-27T06:40:44.059Z,9.00
2018-12-27T06:43:12.335Z,6.53
2018-12-27T06:45:40.555Z,11.50
2018-12-27T06:48:08.699Z,8.87
2018-12-27T06:50:36.939Z,7.23
2018-12-27T06:53:05.386Z,7.03
2018-12-27T06:55:33.615Z,8.90
2018-12-27T06:58:02.114Z,15.00
2018-12-27T07:00:30.681Z,19.97
2018-12-27T07:02:59.003Z,22.07
2018-12-27T07:05:27.747Z,26.90
2018-12-27T07:08:32.722Z,28.53
2018-12-27T07:11:01.074Z,27.17
2018-12-27T07:13:29.502Z,23.37
2018-12-27T07:15:58.162Z,24.70
2018-12-27T07:18:26.320Z,25.50
2018-12-27T07:20:54.565Z,23.37
2018-12-27T07:23:23.141Z,24.63
2018-12-27T07:25:51.671Z,10.00
2018-12-27T07:28:20.156Z,11.17
2018-12-27T07:30:48.489Z,10.23
2018-12-27T07:33:16.908Z,9.93
2018-12-27T07:35:48.294Z,10.20
2018-12-27T07:38:16.829Z,11.77
2018-12-27T07:40:45.419Z,16.67
2018-12-27T07:43:14.387Z,24.87
2018-12-27T07:45:42.583Z,24.10
2018-12-27T07:48:10.811Z,29.67
2018-12-27T07:50:39.177Z,31.23
2018-12-27T07:53:07.475Z,40.37
2018-12-27T07:55:35.854Z,24.73
2018-12-27T07:58:04.033Z,32.07
2018-12-27T08:00:32.223Z,49.33
2018-12-27T08:03:00.475Z,49.40
2018-12-27T08:05:28.979Z,52.53
2018-12-27T08:07:57.445Z,39.27
2018-12-27T08:10:27.266Z,44.83
2018-12-27T08:12:55.639Z,43.93
2018-12-27T08:15:24.072Z,39.10
2018-12-27T08:17:52.477Z,36.63
2018-12-27T08:20:21.398Z,36.13
2018-12-27T08:22:49.826Z,33.97
2018-12-27T08:25:18.225Z,27.77
2018-12-27T08:27:47.150Z,24.33
2018-12-27T08:30:15.278Z,14.27
2018-12-27T08:32:44.020Z,19.87
2018-12-27T08:35:12.656Z,52.43
2018-12-27T08:37:41.355Z,72.87
2018-12-27T08:40:10.087Z,49.83
2018-12-27T08:42:38.478Z,47.07
2018-12-27T08:45:07.245Z,23.13
2018-12-27T08:47:35.934Z,17.93
2018-12-27T08:50:06.810Z,46.23
2018-12-27T08:52:35.710Z,11.83
2018-12-27T08:55:05.244Z,10.23
2018-12-27T08:57:33.890Z,15.40
2018-12-27T09:00:02.635Z,21.07
2018-12-27T09:02:31.362Z,15.33
2018-12-27T09:04:59.823Z,16.63
2018-12-27T09:07:28.318Z,45.47
2018-12-27T09:09:56.825Z,21.13
2018-12-27T09:12:25.217Z,12.93
2018-12-27T09:14:54.068Z,15.53
2018-12-27T09:17:22.471Z,32.33
2018-12-27T09:19:50.866Z,25.30
2018-12-27T09:22:19.350Z,19.33
2018-12-27T09:24:47.951Z,22.40
2018-12-27T09:27:16.363Z,15.33
2018-12-27T09:29:45.029Z,14.50
2018-12-27T09:32:13.818Z,12.57
2018-12-27T09:34:42.745Z,11.07
2018-12-27T09:37:11.508Z,14.20
2018-12-27T09:39:39.890Z,12.70
2018-12-27T09:42:08.348Z,44.40
2018-12-27T09:44:37.183Z,16.77
2018-12-27T09:47:05.809Z,14.60
2018-12-27T09:49:34.626Z,13.47
2018-12-27T09:52:03.633Z,15.60
2018-12-27T09:54:32.023Z,37.67
2018-12-27T09:57:00.688Z,27.17
2018-12-27T09:59:30.714Z,30.30
2018-12-27T10:01:59.218Z,23.90
2018-12-27T10:04:27.683Z,24.60
2018-12-27T10:06:56.192Z,193.60
2018-12-27T10:09:24.621Z,44.90
2018-12-27T10:11:53.218Z,15.20
2018-12-27T10:14:21.727Z,17.97
2018-12-27T10:16:50.207Z,21.13
2018-12-27T10:19:18.901Z,16.30
2018-12-27T10:21:47.395Z,16.63
2018-12-27T10:24:15.785Z,44.83
2018-12-27T10:26:44.548Z,67.70
2018-12-27T10:29:13.395Z,31.23
2018-12-27T10:31:41.815Z,94.37
2018-12-27T10:34:10.191Z,42.70
2018-12-27T10:36:39.047Z,31.63
2018-12-27T10:39:07.700Z,60.70
2018-12-27T10:41:36.155Z,32.93
2018-12-27T10:44:04.798Z,36.53
2018-12-27T10:46:33.343Z,47.60
2018-12-27T10:49:02.339Z,41.07
2018-12-27T10:51:31.047Z,43.50
2018-12-27T10:53:59.784Z,125.10
2018-12-27T10:56:28.244Z,195.37
2018-12-27T10:58:57.091Z,84.70
2018-12-27T11:01:26.019Z,44.33
2018-12-27T11:03:54.437Z,39.63
2018-12-27T11:06:22.889Z,155.50
2018-12-27T11:08:51.998Z,141.27
2018-12-27T11:11:21.078Z,85.10
2018-12-27T11:13:51.949Z,90.97
2018-12-27T11:16:21.142Z,224.83
2018-12-27T11:18:50.126Z,102.70
2018-12-27T11:21:19.198Z,42.07
2018-12-27T11:23:57.494Z,41.50
2018-12-27T11:26:31.585Z,51.03
2018-12-27T11:29:04.449Z,33.80
2018-12-27T11:31:36.553Z,47.50
2018-12-27T11:34:07.935Z,37.00
2018-12-27T11:36:41.879Z,31.73
2018-12-27T11:39:10.695Z,52.83
2018-12-27T11:41:40.319Z,54.57
2018-12-27T11:44:08.719Z,50.00
2018-12-27T11:46:37.289Z,122.33
2018-12-27T11:49:08.709Z,96.17
2018-12-27T11:51:39.572Z,62.17
2018-12-27T11:54:12.727Z,96.17
2018-12-27T11:56:42.034Z,66.50
2018-12-27T11:59:11.452Z,55.80
2018-12-27T12:01:42.034Z,64.13
2018-12-27T12:04:11.066Z,52.50
2018-12-27T12:06:42.316Z,56.37
2018-12-27T12:09:11.756Z,121.47
2018-12-27T12:11:44.736Z,125.17
2018-12-27T12:14:15.361Z,57.40
2018-12-27T12:16:44.259Z,44.10
2018-12-27T12:19:14.170Z,23.83
2018-12-27T12:21:51.114Z,20.20
2018-12-27T12:24:21.561Z,35.90
2018-12-27T12:26:50.890Z,20.27
2018-12-27T12:29:21.053Z,94.90
2018-12-27T12:31:52.955Z,57.77
2018-12-27T12:34:22.069Z,85.60
2018-12-27T12:36:51.024Z,85.73
2018-12-27T12:39:28.927Z,275.10
2018-12-27T12:42:04.957Z,180.27
2018-12-27T12:44:35.102Z,146.43
2018-12-27T12:47:08.891Z,174.13
2018-12-27T12:49:37.824Z,190.97
2018-12-27T12:52:10.888Z,138.23
2018-12-27T12:54:41.180Z,154.77
2018-12-27T12:57:12.034Z,64.07
2018-12-27T12:59:40.695Z,77.43
2018-12-27T13:02:09.438Z,59.20
2018-12-27T13:04:38.153Z,41.03
2018-12-27T13:07:07.005Z,51.43
2018-12-27T13:09:39.133Z,53.37
2018-12-27T13:12:09.132Z,29.90
2018-12-27T13:14:38.790Z,18.53
2018-12-27T13:17:09.183Z,19.63
2018-12-27T13:19:39.305Z,23.03
2018-12-27T13:22:09.107Z,20.33
2018-12-27T13:24:45.194Z,32.50
2018-12-27T13:27:14.391Z,19.43
2018-12-27T13:29:48.371Z,16.97
2018-12-27T13:32:19.078Z,18.50
2018-12-27T13:34:51.510Z,20.20
2018-12-27T13:37:23.443Z,21.57
2018-12-27T13:39:52.656Z,21.47
2018-12-27T13:42:24.038Z,21.63
2018-12-27T13:44:53.350Z,34.63
2018-12-27T13:47:26.781Z,38.83
2018-12-27T13:50:10.193Z,26.67
2018-12-27T13:52:35.097Z,25.33
2018-12-27T13:55:08.990Z,30.07
2018-12-27T13:57:44.811Z,80.90
2018-12-27T14:00:18.539Z,69.70
2018-12-27T14:02:51.565Z,87.03
2018-12-27T14:05:21.553Z,98.23
2018-12-27T14:08:14.716Z,100.23
2018-12-27T14:10:49.465Z,88.97
2018-12-27T14:13:26.079Z,78.83
2018-12-27T14:15:54.901Z,51.70
2018-12-27T14:18:26.658Z,18.83
2018-12-27T14:20:55.164Z,30.33
2018-12-27T14:23:25.155Z,34.47
2018-12-27T14:25:54.329Z,24.17
2018-12-27T14:28:24.281Z,24.20
2018-12-27T14:30:54.420Z,28.53
2018-12-27T14:33:23.479Z,38.47
2018-12-27T14:35:53.350Z,77.60
2018-12-27T14:38:22.939Z,74.37
2018-12-27T14:40:56.648Z,60.50
2018-12-27T14:43:26.496Z,61.20
2018-12-27T14:45:58.718Z,59.53
2018-12-27T14:48:27.881Z,53.43
2018-12-27T14:50:57.705Z,285.33
2018-12-27T14:53:27.441Z,130.43
2018-12-27T14:56:03.383Z,124.33
2018-12-27T14:58:33.336Z,87.13
2018-12-27T15:01:01.755Z,95.80
2018-12-27T15:03:35.859Z,184.03
2018-12-27T15:06:04.270Z,171.80
2018-12-27T15:08:33.696Z,166.90
2018-12-27T15:11:02.382Z,144.00
2018-12-27T15:13:30.970Z,218.27
2018-12-27T15:15:59.645Z,75.67
2018-12-27T15:18:28.284Z,47.40
2018-12-27T15:20:56.798Z,42.77
2018-12-27T15:23:25.360Z,68.30
2018-12-27T15:25:53.920Z,39.57
2018-12-27T15:28:22.368Z,39.60
2018-12-27T15:30:50.775Z,37.63
2018-12-27T15:33:19.186Z,49.00
2018-12-27T15:35:48.449Z,45.57
2018-12-27T15:38:17.324Z,36.10
2018-12-27T15:40:45.806Z,56.37
2018-12-27T15:43:14.626Z,127.00
2018-12-27T15:45:43.034Z,163.40
2018-12-27T15:48:11.431Z,118.07
2018-12-27T15:50:40.288Z,121.60
2018-12-27T15:53:08.977Z,120.77
2018-12-27T15:55:37.561Z,96.73
2018-12-27T15:58:06.242Z,81.63
2018-12-27T16:00:35.297Z,122.60
2018-12-27T16:03:03.711Z,229.57
2018-12-27T16:05:32.153Z,195.90
2018-12-27T16:08:00.764Z,198.33
2018-12-27T16:10:29.426Z,224.60
2018-12-27T16:12:58.387Z,227.07
2018-12-27T16:15:26.784Z,247.33
2018-12-27T16:17:58.404Z,198.77
2018-12-27T16:20:27.440Z,220.63
2018-12-27T16:22:55.762Z,254.80
2018-12-27T16:25:24.332Z,245.50
2018-12-27T16:27:52.757Z,204.13
2018-12-27T16:30:21.365Z,144.43
2018-12-27T16:32:50.083Z,69.90
2018-12-27T16:35:19.501Z,43.43
2018-12-27T16:37:48.315Z,38.17
2018-12-27T16:40:17.246Z,40.43
2018-12-27T16:42:46.013Z,37.87
2018-12-27T16:45:14.415Z,179.33
2018-12-27T16:47:43.462Z,316.43
2018-12-27T16:50:11.911Z,351.17
2018-12-27T16:52:40.421Z,312.07
2018-12-27T16:55:09.030Z,243.17
2018-12-27T16:57:37.560Z,59.10
2018-12-27T17:00:08.069Z,61.07
2018-12-27T17:02:36.756Z,60.73
2018-12-27T17:05:06.225Z,36.30
2018-12-27T17:07:35.163Z,37.03
2018-12-27T17:10:03.854Z,44.33
2018-12-27T17:12:32.913Z,36.07
2018-12-27T17:15:04.581Z,42.53
2018-12-27T17:17:33.008Z,45.07
2018-12-27T17:20:01.722Z,47.77
2018-12-27T17:22:32.626Z,77.10
2018-12-27T17:25:01.434Z,60.87
2018-12-27T17:27:31.717Z,36.07
2018-12-27T17:30:00.648Z,45.60
2018-12-27T17:32:29.270Z,38.03
2018-12-27T17:34:58.015Z,122.80
2018-12-27T17:37:26.827Z,42.90
2018-12-27T17:39:55.478Z,46.93
2018-12-27T17:42:24.140Z,43.13
2018-12-27T17:44:52.893Z,44.40
2018-12-27T17:47:21.329Z,44.13
2018-12-27T17:49:49.911Z,272.33
2018-12-27T17:52:18.604Z,300.27
2018-12-27T17:54:47.268Z,311.90
2018-12-27T17:57:15.798Z,301.33
2018-12-27T17:59:44.389Z,280.00
2018-12-27T18:02:12.951Z,268.23
2018-12-27T18:04:42.000Z,232.60
2018-12-27T18:07:11.257Z,259.80
2018-12-27T18:09:39.776Z,251.87
2018-12-27T18:12:08.943Z,305.00
2018-12-27T18:14:38.063Z,282.50
2018-12-27T18:17:06.526Z,253.27
2018-12-27T18:19:35.180Z,155.50
2018-12-27T18:22:04.116Z,216.77
2018-12-27T18:24:34.178Z,111.37
2018-12-27T18:27:02.562Z,106.17
2018-12-27T18:29:35.699Z,54.43
2018-12-27T18:32:08.237Z,57.53
2018-12-27T18:37:37.678Z,52.17
2018-12-27T18:40:12.974Z,91.77
2018-12-27T18:42:46.199Z,138.40
2018-12-27T18:45:19.201Z,96.73
2018-12-27T18:47:50.499Z,103.07
2018-12-27T18:50:19.553Z,112.53
2018-12-27T18:52:48.073Z,115.60
2018-12-27T18:55:20.255Z,116.30
2018-12-27T18:57:47.136Z,69.23
2018-12-27T19:00:15.614Z,50.00
2018-12-27T19:02:44.036Z,66.90
2018-12-27T19:05:12.796Z,67.40
2018-12-27T19:07:45.082Z,69.90
2018-12-27T19:10:11.888Z,65.33
2018-12-27T19:13:03.390Z,53.57
2018-12-27T19:15:34.272Z,119.47
2018-12-27T19:18:05.050Z,173.37
2018-12-27T19:20:34.795Z,109.23
2018-12-27T19:23:13.269Z,92.97
2018-12-27T19:25:41.717Z,111.30
2018-12-27T19:28:10.787Z,84.80
2018-12-27T19:30:39.940Z,90.57
2018-12-27T19:33:08.323Z,49.17
2018-12-27T19:35:37.338Z,66.23
2018-12-27T19:38:06.096Z,97.97
2018-12-27T19:40:34.911Z,93.20
2018-12-27T19:43:03.364Z,133.23
2018-12-27T19:45:31.885Z,120.27
2018-12-27T19:48:00.805Z,68.37
2018-12-27T19:50:29.393Z,74.70
2018-12-27T19:52:57.818Z,133.37
2018-12-27T19:55:26.350Z,171.50
2018-12-27T19:57:54.741Z,35.43
2018-12-27T20:00:25.919Z,49.40
2018-12-27T20:02:54.658Z,41.87
2018-12-27T20:05:23.299Z,39.80
2018-12-27T20:07:59.061Z,44.10
2018-12-27T20:10:22.377Z,50.27
2018-12-27T20:12:50.878Z,67.40
2018-12-27T20:15:22.304Z,90.70
2018-12-27T20:17:50.866Z,135.13
2018-12-27T20:20:20.239Z,214.67
2018-12-27T20:22:49.274Z,209.80
2018-12-27T20:25:17.945Z,208.93
2018-12-27T20:27:48.148Z,198.57
2018-12-27T20:30:16.825Z,178.97
2018-12-27T20:32:45.389Z,254.77
2018-12-27T20:35:13.913Z,225.77
2018-12-27T20:37:43.941Z,180.90
2018-12-27T20:40:12.576Z,93.30
2018-12-27T20:42:41.580Z,109.33
2018-12-27T20:45:13.363Z,71.27
2018-12-27T20:47:42.048Z,78.73
2018-12-27T20:50:10.932Z,95.40
2018-12-27T20:52:39.762Z,95.20
2018-12-27T20:55:08.916Z,62.50
2018-12-27T20:57:37.761Z,66.43
2018-12-27T21:00:07.445Z,52.40
2018-12-27T21:02:37.434Z,47.77
2018-12-27T21:05:06.140Z,50.10
2018-12-27T21:07:34.816Z,69.70
2018-12-27T21:10:03.553Z,85.47
2018-12-27T21:12:32.373Z,88.27
2018-12-27T21:15:00.914Z,89.63
2018-12-27T21:17:29.745Z,72.10
2018-12-27T21:19:58.161Z,73.10
2018-12-27T21:22:27.071Z,74.83
2018-12-27T21:24:55.812Z,60.37
2018-12-27T21:27:25.100Z,46.43
2018-12-27T21:29:53.710Z,52.87
2018-12-27T21:32:22.464Z,46.27
2018-12-27T21:34:53.917Z,38.03
2018-12-27T21:37:22.619Z,37.27
2018-12-27T21:39:51.100Z,32.73
2018-12-27T21:42:19.570Z,63.27
2018-12-27T21:44:48.689Z,56.30
2018-12-27T21:47:17.332Z,53.90
2018-12-27T21:49:45.782Z,49.37
2018-12-27T21:52:14.811Z,47.10
2018-12-27T21:54:43.192Z,48.17
2018-12-27T21:57:11.670Z,45.20
2018-12-27T21:59:40.741Z,46.00
2018-12-27T22:02:09.362Z,52.20
2018-12-27T22:04:37.979Z,63.53
2018-12-27T22:07:06.782Z,80.53
2018-12-27T22:09:35.456Z,92.50
2018-12-27T22:12:05.631Z,102.33
2018-12-27T22:14:34.569Z,44.67
2018-12-27T22:17:04.164Z,42.70
2018-12-27T22:19:32.664Z,68.10
2018-12-27T22:22:01.098Z,41.40
2018-12-27T22:24:29.620Z,38.63
2018-12-27T22:26:58.239Z,41.00
2018-12-27T22:29:26.684Z,35.60
2018-12-27T22:31:56.891Z,33.30
2018-12-27T22:34:25.334Z,53.70
2018-12-27T22:36:53.851Z,59.67
2018-12-27T22:39:23.033Z,49.63
2018-12-27T22:41:53.488Z,46.20
2018-12-27T22:44:21.919Z,54.83
2018-12-27T22:46:50.307Z,54.83
2018-12-27T22:49:18.769Z,53.97
2018-12-27T22:51:48.562Z,40.37
2018-12-27T22:54:17.021Z,37.57
2018-12-27T22:56:45.664Z,39.90
2018-12-27T22:59:14.143Z,36.73
2018-12-27T23:01:42.728Z,32.60
2018-12-27T23:04:12.223Z,33.47
2018-12-27T23:06:40.743Z,34.50
2018-12-27T23:09:09.567Z,29.77
2018-12-27T23:11:38.307Z,36.13
2018-12-27T23:14:07.431Z,27.30
2018-12-27T23:16:35.901Z,30.53
2018-12-27T23:19:04.294Z,33.13
2018-12-27T23:21:32.937Z,34.07
2018-12-27T23:24:01.682Z,30.13
2018-12-27T23:26:30.298Z,36.87
2018-12-27T23:28:59.596Z,32.20
2018-12-27T23:31:27.989Z,34.37
2018-12-27T23:33:56.383Z,166.20
2018-12-27T23:36:24.980Z,87.30
2018-12-27T23:38:53.451Z,41.50
2018-12-27T23:41:21.975Z,26.10
2018-12-27T23:43:50.697Z,38.17
2018-12-27T23:46:19.548Z,55.27
2018-12-27T23:48:48.017Z,32.40
2018-12-27T23:51:17.120Z,70.63
2018-12-27T23:53:45.655Z,50.33
2018-12-27T23:56:14.049Z,70.40
2018-12-27T23:58:42.903Z,87.73
